Time;durP1;ratioP1;P1;durP2;ratioP2;P2;SDS_P1;SDS_P2;PMS_P1;PMS_P2;Temp;Humidity;BMP_temperature;BMP_pressure;BME280_temperature;BME280_humidity;BME280_pressure;Samples;Min_cycle;Max_cycle;Signal;HPM_P1;HPM_P2
2022/03/23 00:00:15;;;;;;;13.27;6.43;;;;;;;2.51;82.22;100665.47;5093601;28;20245;-57
2022/03/23 00:02:42;;;;;;;11.70;6.50;;;;;;;2.42;82.40;100667.25;5093300;28;20671;-56
2022/03/23 00:05:09;;;;;;;13.00;6.80;;;;;;;2.44;82.14;100663.03;5093774;28;20222;-65
2022/03/23 00:07:36;;;;;;;12.27;6.90;;;;;;;2.53;81.79;100668.78;5093473;28;20194;-65
2022/03/23 00:10:04;;;;;;;13.47;6.97;;;;;;;2.51;81.41;100665.47;5094322;28;20780;-65
2022/03/23 00:12:32;;;;;;;11.37;7.00;;;;;;;2.41;81.66;100663.03;5093494;28;20236;-65
2022/03/23 00:14:59;;;;;;;11.27;6.73;;;;;;;2.38;81.51;100659.75;5094382;28;20214;-65
2022/03/23 00:17:26;;;;;;;14.53;7.13;;;;;;;2.35;81.75;100663.13;5094945;28;20214;-65
2022/03/23 00:19:53;;;;;;;15.43;7.23;;;;;;;2.37;81.42;100665.66;5094529;28;20245;-57
2022/03/23 00:22:20;;;;;;;14.60;7.23;;;;;;;2.37;81.10;100656.38;5093637;28;20212;-57
2022/03/23 00:24:47;;;;;;;13.20;6.53;;;;;;;2.24;81.36;100665.81;5093446;28;20210;-58
2022/03/23 00:27:14;;;;;;;13.63;7.17;;;;;;;2.12;82.51;100655.84;5093033;28;20198;-57
2022/03/23 00:29:42;;;;;;;13.47;7.40;;;;;;;2.16;82.74;100661.72;5093652;28;20730;-65
2022/03/23 00:32:09;;;;;;;14.43;7.90;;;;;;;2.23;82.40;100658.25;5093539;28;20256;-65
2022/03/23 00:34:36;;;;;;;13.27;7.43;;;;;;;2.24;82.66;100659.91;5093021;28;20224;-57
2022/03/23 00:37:04;;;;;;;19.17;7.30;;;;;;;2.38;82.09;100660.56;5092837;28;20199;-65
2022/03/23 00:39:31;;;;;;;16.67;8.33;;;;;;;2.45;81.38;100659.66;5093489;28;20206;-57
2022/03/23 00:41:59;;;;;;;14.40;7.23;;;;;;;2.49;81.23;100661.25;5094912;28;20218;-65
2022/03/23 00:44:25;;;;;;;13.87;7.27;;;;;;;2.37;81.14;100651.34;5093678;28;20206;-57
2022/03/23 00:46:54;;;;;;;16.33;7.03;;;;;;;2.27;80.96;100654.84;5094772;28;20244;-56
2022/03/23 00:49:21;;;;;;;14.60;6.43;;;;;;;2.12;81.41;100652.50;5094295;28;20202;-65
2022/03/23 00:51:53;;;;;;;14.23;7.50;;;;;;;1.87;82.51;100650.28;5094397;28;20236;-64
2022/03/23 00:54:21;;;;;;;15.80;7.43;;;;;;;1.87;82.73;100644.41;5094750;28;20273;-65
2022/03/23 00:56:50;;;;;;;12.53;7.13;;;;;;;1.92;82.49;100643.50;5093858;28;20623;-64
2022/03/23 00:59:17;;;;;;;15.90;7.43;;;;;;;1.93;83.08;100644.34;5093281;28;20206;-62
2022/03/23 01:01:45;;;;;;;14.83;7.00;;;;;;;2.03;82.45;100646.72;5093401;28;20221;-57
2022/03/23 01:04:14;;;;;;;13.33;6.57;;;;;;;1.97;82.51;100646.78;5094138;28;20554;-65
2022/03/23 01:06:40;;;;;;;14.33;7.20;;;;;;;2.02;82.28;100650.09;5093765;28;20352;-57
2022/03/23 01:09:07;;;;;;;14.53;6.97;;;;;;;2.04;82.16;100645.88;5095579;28;20209;-57
2022/03/23 01:11:36;;;;;;;13.10;6.80;;;;;;;2.11;81.94;100648.31;5094736;28;20214;-57
2022/03/23 01:14:03;;;;;;;14.37;6.63;;;;;;;2.09;81.51;100640.75;5092571;28;20671;-65
2022/03/23 01:16:31;;;;;;;13.10;6.67;;;;;;;2.10;81.46;100644.97;5094068;28;20279;-57
2022/03/23 01:18:57;;;;;;;10.87;6.90;;;;;;;2.06;81.39;100639.97;5095160;28;20202;-57
2022/03/23 01:21:26;;;;;;;11.87;6.90;;;;;;;2.07;81.08;100631.56;5097606;28;20727;-57
2022/03/23 01:23:53;;;;;;;13.10;7.17;;;;;;;2.00;81.13;100630.78;5097255;28;20679;-57
2022/03/23 01:26:20;;;;;;;13.53;6.53;;;;;;;1.99;81.18;100629.13;5097495;28;20218;-66
2022/03/23 01:28:47;;;;;;;11.03;6.57;;;;;;;1.91;81.20;100631.72;5097938;28;20593;-64
2022/03/23 01:31:15;;;;;;;12.87;6.90;;;;;;;1.87;81.31;100625.06;5097732;28;20228;-56
2022/03/23 01:33:43;;;;;;;19.30;7.27;;;;;;;1.94;80.96;100626.66;5097364;28;20240;-56
2022/03/23 01:36:10;;;;;;;12.03;6.97;;;;;;;1.86;81.54;100633.47;5096025;28;20226;-57
2022/03/23 01:38:39;;;;;;;14.40;6.77;;;;;;;1.87;81.47;100635.16;5097523;28;20213;-65
2022/03/23 01:41:06;;;;;;;13.17;6.70;;;;;;;1.80;81.94;100631.00;5096377;28;20225;-65
2022/03/23 01:43:34;;;;;;;16.73;6.83;;;;;;;1.84;81.44;100630.16;5097671;28;20607;-65
2022/03/23 01:46:01;;;;;;;12.83;7.07;;;;;;;1.73;82.46;100627.72;5096682;28;20226;-57
2022/03/23 01:48:28;;;;;;;14.83;7.07;;;;;;;1.65;82.87;100628.66;5096945;28;20210;-66
2022/03/23 01:50:55;;;;;;;15.70;7.30;;;;;;;1.58;83.88;100633.78;5096450;28;20229;-57
2022/03/23 01:53:22;;;;;;;15.47;7.40;;;;;;;1.54;84.02;100622.06;5096488;28;20235;-65
2022/03/23 01:55:51;;;;;;;13.33;7.00;;;;;;;1.61;84.05;100627.03;5098045;28;20574;-57
2022/03/23 01:58:20;;;;;;;13.83;6.97;;;;;;;1.59;83.58;100630.41;5097233;28;20202;-66
2022/03/23 02:00:47;;;;;;;11.63;7.10;;;;;;;1.55;83.86;100633.81;5096164;28;20230;-65
2022/03/23 02:03:14;;;;;;;14.67;7.77;;;;;;;1.55;84.09;100623.72;5096519;28;20197;-57
2022/03/23 02:05:42;;;;;;;16.87;8.40;;;;;;;1.52;84.02;100628.81;5096655;28;20228;-65
2022/03/23 02:08:09;;;;;;;15.63;8.40;;;;;;;1.54;84.10;100622.06;5096316;28;20208;-56
2022/03/23 02:10:36;;;;;;;14.90;7.83;;;;;;;1.55;83.66;100621.22;5096374;28;20218;-57
2022/03/23 02:13:05;;;;;;;15.30;7.80;;;;;;;1.51;83.55;100619.59;5097452;28;20425;-57
2022/03/23 02:15:32;;;;;;;12.37;7.53;;;;;;;1.49;83.55;100628.84;5095665;28;20214;-57
2022/03/23 02:17:59;;;;;;;12.57;7.03;;;;;;;1.51;83.50;100619.59;5096543;28;20208;-60
2022/03/23 02:20:26;;;;;;;15.13;7.73;;;;;;;1.55;83.18;100622.91;5095732;28;20225;-65
2022/03/23 02:22:56;;;;;;;15.43;7.70;;;;;;;1.56;83.09;100625.38;5096263;28;20241;-61
2022/03/23 02:25:26;;;;;;;15.60;7.23;;;;;;;1.61;82.90;100627.03;5098191;28;20701;-57
2022/03/23 02:27:53;;;;;;;17.93;7.60;;;;;;;1.65;82.80;100626.97;5096428;28;20209;-65
2022/03/23 02:30:21;;;;;;;14.13;7.43;;;;;;;1.70;83.11;100622.72;5095685;28;20229;-57
2022/03/23 02:32:48;;;;;;;14.13;7.40;;;;;;;1.65;83.75;100626.16;5096468;28;20333;-58
2022/03/23 02:35:15;;;;;;;12.73;6.70;;;;;;;1.66;84.19;100622.78;5096642;28;20707;-65
2022/03/23 02:37:43;;;;;;;13.60;7.33;;;;;;;1.72;84.06;100620.19;5095270;28;20281;-65
2022/03/23 02:40:11;;;;;;;12.23;7.13;;;;;;;1.83;83.42;100620.06;5094357;28;20221;-65
2022/03/23 02:42:39;;;;;;;16.83;7.03;;;;;;;1.85;83.10;100626.75;5095997;28;20224;-65
2022/03/23 02:45:07;;;;;;;13.00;7.60;;;;;;;1.76;83.34;100621.81;5094909;28;20221;-66
2022/03/23 02:47:34;;;;;;;16.30;7.90;;;;;;;1.74;83.38;100628.56;5094751;28;20209;-57
2022/03/23 02:50:01;;;;;;;13.70;8.40;;;;;;;1.77;83.30;100623.47;5095797;28;20226;-61
2022/03/23 02:52:31;;;;;;;17.57;7.90;;;;;;;1.83;83.18;100620.88;5094935;28;20213;-58
2022/03/23 03:03:49;;;;;;;15.33;8.57;;;;;;;1.56;83.88;100620.34;5096194;28;20277;-66
2022/03/23 03:06:16;;;;;;;14.30;7.97;;;;;;;1.53;84.53;100622.91;5095472;28;20719;-66
2022/03/23 03:08:45;;;;;;;15.77;7.97;;;;;;;1.53;84.43;100620.38;5094823;28;20209;-64
2022/03/23 03:11:14;;;;;;;14.03;7.40;;;;;;;1.45;84.66;100617.09;5094021;28;20222;-57
2022/03/23 03:13:43;;;;;;;18.17;8.00;;;;;;;1.37;84.63;100611.34;5095245;28;20226;-65
2022/03/23 03:16:10;;;;;;;15.20;8.10;;;;;;;1.32;84.80;100618.09;5094972;28;20230;-57
2022/03/23 03:18:37;;;;;;;15.43;8.03;;;;;;;1.34;85.00;100614.72;5095416;28;20206;-65
2022/03/23 03:21:06;;;;;;;16.03;8.20;;;;;;;1.32;84.70;100610.53;5094667;28;20221;-56
2022/03/23 03:23:33;;;;;;;14.40;8.03;;;;;;;1.28;84.46;100609.75;5095473;28;20210;-57
2022/03/23 03:26:01;;;;;;;16.63;8.27;;;;;;;1.26;84.73;100615.63;5094996;28;20221;-66
2022/03/23 03:28:28;;;;;;;15.83;8.37;;;;;;;1.20;84.62;100613.19;5094943;28;20297;-62
2022/03/23 03:30:57;;;;;;;15.47;8.13;;;;;;;1.19;84.88;100604.75;5094188;28;20228;-66
2022/03/23 03:33:24;;;;;;;17.17;8.37;;;;;;;1.18;84.68;100607.31;5093340;28;20242;-64
2022/03/23 03:35:51;;;;;;;14.57;7.57;;;;;;;1.22;84.75;100601.38;5093254;28;20253;-57
2022/03/23 03:38:18;;;;;;;18.33;7.87;;;;;;;1.18;84.57;100608.13;5094845;28;20217;-57
2022/03/23 03:40:45;;;;;;;19.07;7.90;;;;;;;1.21;84.36;100608.09;5093456;28;20221;-65
2022/03/23 03:43:12;;;;;;;14.07;7.43;;;;;;;1.16;83.93;100603.97;5094144;28;20268;-65
2022/03/23 03:45:40;;;;;;;13.27;7.27;;;;;;;1.11;84.09;100597.28;5094057;28;20229;-57
2022/03/23 03:48:09;;;;;;;14.27;7.10;;;;;;;1.08;84.13;100597.31;5094204;28;20202;-65
2022/03/23 03:50:36;;;;;;;18.67;7.97;;;;;;;1.08;84.22;100607.41;5094185;28;20222;-65
2022/03/23 03:53:03;;;;;;;19.90;7.77;;;;;;;1.19;83.43;100603.94;5094049;28;20278;-56
2022/03/23 03:55:30;;;;;;;17.90;7.83;;;;;;;1.13;83.73;100600.66;5093876;28;20222;-56
2022/03/23 03:57:57;;;;;;;16.83;7.73;;;;;;;1.13;83.75;100602.31;5096096;28;20206;-65
2022/03/23 04:00:24;;;;;;;14.40;7.53;;;;;;;1.07;83.99;100600.66;5094707;28;20222;-65
2022/03/23 04:02:51;;;;;;;13.43;7.17;;;;;;;1.07;83.65;100598.16;5093537;28;20210;-66
2022/03/23 04:05:20;;;;;;;17.27;7.20;;;;;;;1.04;83.81;100597.34;5095181;28;20229;-65
2022/03/23 04:07:47;;;;;;;14.30;7.40;;;;;;;1.10;83.76;100598.13;5095381;28;20206;-57
2022/03/23 04:10:14;;;;;;;18.33;7.87;;;;;;;1.00;83.87;100599.06;5095666;28;20245;-65
2022/03/23 04:12:41;;;;;;;15.40;7.97;;;;;;;0.98;84.27;100600.75;5094367;28;20197;-65
2022/03/23 04:15:09;;;;;;;17.07;7.80;;;;;;;0.99;83.85;100604.09;5094885;28;20249;-65
2022/03/23 04:17:36;;;;;;;13.43;7.27;;;;;;;1.02;83.96;100607.47;5094887;28;20218;-56
2022/03/23 04:20:04;;;;;;;16.67;7.40;;;;;;;1.03;83.77;100604.06;5094953;28;20241;-65
2022/03/23 04:22:32;;;;;;;16.83;6.93;;;;;;;0.99;83.77;100597.41;5094020;28;20201;-65
2022/03/23 04:24:59;;;;;;;11.73;6.57;;;;;;;0.97;84.04;100601.63;5094447;28;20225;-65
2022/03/23 04:27:26;;;;;;;14.53;7.50;;;;;;;1.03;83.68;100604.06;5095063;28;20197;-56
2022/03/23 04:29:53;;;;;;;13.80;6.93;;;;;;;1.09;83.29;100613.25;5094179;28;20296;-57
2022/03/23 04:32:21;;;;;;;13.07;7.17;;;;;;;1.17;82.91;100605.66;5094382;28;20550;-57
2022/03/23 04:34:48;;;;;;;17.17;7.30;;;;;;;1.22;82.93;100608.94;5093853;28;20240;-57
2022/03/23 04:37:15;;;;;;;16.83;7.37;;;;;;;1.34;82.43;100612.19;5093504;28;20213;-65
2022/03/23 04:39:43;;;;;;;15.60;7.23;;;;;;;1.41;81.99;100612.97;5093790;28;20220;-58
2022/03/23 04:42:10;;;;;;;14.43;7.80;;;;;;;1.55;81.43;100612.81;5093210;28;20271;-57
2022/03/23 04:44:37;;;;;;;14.77;7.30;;;;;;;1.58;80.87;100617.81;5094766;28;20217;-65
2022/03/23 04:47:06;;;;;;;17.50;6.87;;;;;;;1.67;80.47;100616.91;5094847;28;20561;-57
2022/03/23 04:49:33;;;;;;;13.87;6.50;;;;;;;1.76;80.09;100617.63;5093482;28;20186;-57
2022/03/23 04:52:00;;;;;;;15.83;6.50;;;;;;;1.84;79.95;100616.72;5094105;28;20687;-57
2022/03/23 04:54:27;;;;;;;17.73;6.40;;;;;;;1.92;79.62;100618.28;5092204;28;20608;-57
2022/03/23 04:56:55;;;;;;;20.53;7.20;;;;;;;2.00;79.26;100613.97;5093013;28;20228;-66
2022/03/23 04:59:23;;;;;;;17.53;6.80;;;;;;;2.10;78.98;100621.44;5092788;28;20205;-57
2022/03/23 05:01:50;;;;;;;17.30;6.63;;;;;;;2.23;78.42;100617.88;5092278;28;20234;-65
2022/03/23 05:04:17;;;;;;;14.13;6.20;;;;;;;2.39;77.58;100616.81;5093435;28;20683;-57
2022/03/23 05:06:44;;;;;;;12.90;6.13;;;;;;;2.55;76.82;100619.13;5093171;28;20228;-65
2022/03/23 05:09:11;;;;;;;15.60;6.67;;;;;;;2.66;76.26;100617.28;5092526;28;20202;-57
2022/03/23 05:11:38;;;;;;;13.40;6.10;;;;;;;2.83;75.59;100625.41;5093475;28;20225;-62
2022/03/23 05:14:07;;;;;;;16.17;6.67;;;;;;;3.00;74.61;100619.28;5092147;28;20644;-65
2022/03/23 05:16:34;;;;;;;14.17;6.90;;;;;;;3.16;74.62;100624.03;5092912;28;20707;-58
2022/03/23 05:19:02;;;;;;;12.90;6.70;;;;;;;3.32;74.02;100628.84;5092881;28;20208;-57
2022/03/23 05:21:29;;;;;;;19.70;9.37;;;;;;;3.47;73.77;100630.25;5093497;28;20226;-64
2022/03/23 05:23:57;;;;;;;17.70;8.83;;;;;;;3.74;72.99;100632.25;5093189;28;20201;-65
2022/03/23 05:26:24;;;;;;;18.90;8.73;;;;;;;4.07;72.59;100635.81;5094713;28;20229;-66
2022/03/23 05:28:51;;;;;;;18.90;7.90;;;;;;;4.39;71.17;100635.97;5092841;28;20293;-65
2022/03/23 05:31:19;;;;;;;13.73;6.47;;;;;;;4.72;69.45;100636.94;5093408;28;20228;-66
2022/03/23 05:33:46;;;;;;;9.73;6.00;;;;;;;4.93;69.39;100633.06;5092909;28;20252;-57
2022/03/23 05:36:14;;;;;;;12.27;6.27;;;;;;;5.27;68.12;100633.06;5092550;28;20221;-57
2022/03/23 05:38:41;;;;;;;12.20;5.70;;;;;;;5.50;66.76;100645.16;5092754;28;20209;-57
2022/03/23 05:41:07;;;;;;;12.17;5.97;;;;;;;5.80;65.53;100642.66;5093237;28;20221;-57
2022/03/23 05:43:34;;;;;;;35.40;7.00;;;;;;;6.00;64.94;100639.59;5092893;28;20230;-67
2022/03/23 05:46:01;;;;;;;14.93;6.07;;;;;;;6.31;63.16;100644.59;5092125;28;20222;-57
2022/03/23 05:48:29;;;;;;;14.90;6.07;;;;;;;6.50;62.68;100650.78;5092907;28;20209;-63
2022/03/23 05:50:56;;;;;;;12.97;6.00;;;;;;;6.64;61.55;100647.84;5092781;28;20217;-60
2022/03/23 05:53:23;;;;;;;17.40;6.13;;;;;;;6.80;61.05;100643.91;5093226;28;20206;-57
2022/03/23 05:55:50;;;;;;;8.40;5.27;;;;;;;6.92;61.24;100652.91;5093963;28;20279;-57
2022/03/23 05:58:17;;;;;;;12.07;5.70;;;;;;;7.11;59.28;100649.75;5092675;28;20204;-65
2022/03/23 06:00:47;;;;;;;21.60;9.03;;;;;;;7.29;59.46;100646.59;5093198;28;20218;-65
2022/03/23 06:03:14;;;;;;;16.57;7.87;;;;;;;7.43;57.96;100641.88;5092513;28;20659;-62
2022/03/23 06:05:42;;;;;;;15.53;8.73;;;;;;;7.73;57.52;100651.84;5094483;28;20214;-58
2022/03/23 06:08:09;;;;;;;10.90;5.23;;;;;;;8.09;57.12;100653.97;5095855;28;20621;-58
2022/03/23 06:10:36;;;;;;;12.97;5.87;;;;;;;8.22;56.18;100655.16;5097804;28;20256;-66
2022/03/23 06:13:03;;;;;;;11.23;4.60;;;;;;;8.11;56.89;100658.09;5096129;28;20206;-57
2022/03/23 06:15:29;;;;;;;11.67;5.47;;;;;;;8.31;55.85;100652.28;5095615;28;20240;-64
2022/03/23 06:17:56;;;;;;;11.43;5.43;;;;;;;8.65;54.95;100651.03;5094735;28;20205;-64
2022/03/23 06:20:23;;;;;;;9.77;6.03;;;;;;;8.92;56.86;100650.81;5095524;28;20610;-56
2022/03/23 06:22:52;;;;;;;11.73;5.73;;;;;;;8.96;54.36;100652.34;5096542;28;20202;-64
2022/03/23 06:25:19;;;;;;;11.67;6.03;;;;;;;9.23;54.65;100656.31;5099516;28;20228;-64
2022/03/23 06:27:46;;;;;;;18.10;8.30;;;;;;;9.22;52.96;100649.56;5098315;28;20213;-55
2022/03/23 06:30:13;;;;;;;13.20;5.60;;;;;;;9.57;53.71;100652.38;5097463;28;20226;-64
2022/03/23 06:32:40;;;;;;;12.10;6.70;;;;;;;9.85;52.93;100646.88;5096341;28;20206;-64
2022/03/23 06:35:08;;;;;;;18.43;9.77;;;;;;;10.03;51.84;100654.59;5096269;28;20238;-64
2022/03/23 06:37:35;;;;;;;13.53;7.20;;;;;;;9.91;50.98;100653.44;5097030;28;20225;-56
2022/03/23 06:40:06;;;;;;;14.27;7.80;;;;;;;9.69;50.80;100654.38;5095584;28;20222;-57
2022/03/23 06:42:33;;;;;;;16.97;8.20;;;;;;;9.90;52.09;100654.34;5095443;28;20202;-64
2022/03/23 06:45:01;;;;;;;11.83;6.60;;;;;;;10.06;50.56;100651.91;5095163;28;20606;-57
2022/03/23 06:47:28;;;;;;;61.97;11.33;;;;;;;10.43;50.70;100656.22;5095023;28;20316;-65
2022/03/23 06:49:55;;;;;;;13.60;6.30;;;;;;;10.64;49.38;100650.06;5094825;28;20313;-56
2022/03/23 06:52:22;;;;;;;13.13;4.50;;;;;;;10.51;48.44;100656.69;5095259;28;20572;-56
2022/03/23 06:54:49;;;;;;;9.27;5.03;;;;;;;10.34;48.89;100649.78;5095536;28;20230;-57
2022/03/23 06:57:18;;;;;;;9.47;4.40;;;;;;;10.92;49.20;100653.88;5094428;28;20201;-66
2022/03/23 06:59:44;;;;;;;13.83;6.40;;;;;;;11.36;48.84;100643.16;5095647;28;20210;-56
2022/03/23 07:02:11;;;;;;;9.90;4.10;;;;;;;11.69;46.09;100655.16;5095505;28;20202;-65
2022/03/23 07:04:38;;;;;;;9.07;4.13;;;;;;;11.65;46.31;100653.66;5095791;28;20597;-64
2022/03/23 07:07:05;;;;;;;11.50;4.97;;;;;;;11.91;45.79;100655.72;5095474;28;20209;-56
2022/03/23 07:09:31;;;;;;;9.67;4.63;;;;;;;11.74;45.32;100658.31;5094274;28;20210;-67
2022/03/23 07:11:58;;;;;;;14.67;8.10;;;;;;;12.04;47.35;100649.94;5094353;28;20230;-58
2022/03/23 07:14:27;;;;;;;15.00;7.37;;;;;;;12.21;46.06;100657.56;5094756;28;20242;-64
2022/03/23 07:16:54;;;;;;;9.97;4.00;;;;;;;12.60;43.94;100649.44;5095531;28;20711;-66
2022/03/23 07:19:22;;;;;;;10.03;5.10;;;;;;;12.52;44.31;100656.72;5094533;28;20690;-65
2022/03/23 07:21:49;;;;;;;11.63;4.13;;;;;;;12.78;43.93;100654.47;5093983;28;20278;-57
2022/03/23 07:24:16;;;;;;;7.87;3.83;;;;;;;12.94;41.62;100654.41;5093633;28;20210;-67
2022/03/23 07:26:43;;;;;;;9.00;3.67;;;;;;;13.20;43.36;100648.59;5095133;28;20643;-66
2022/03/23 07:29:10;;;;;;;6.50;3.57;;;;;;;13.23;41.84;100656.13;5095323;28;20232;-65
2022/03/23 07:31:38;;;;;;;8.83;4.47;;;;;;;13.30;42.45;100652.31;5095896;28;20691;-57
2022/03/23 07:34:05;;;;;;;8.10;3.50;;;;;;;13.38;40.00;100653.59;5096054;28;20236;-65
2022/03/23 07:36:32;;;;;;;9.10;3.60;;;;;;;12.99;39.68;100654.97;5097151;28;20222;-57
2022/03/23 07:38:59;;;;;;;10.30;4.67;;;;;;;13.14;41.61;100659.22;5094279;28;20202;-58
2022/03/23 07:41:26;;;;;;;5.60;3.03;;;;;;;13.31;41.27;100659.09;5094780;28;20231;-66
2022/03/23 07:43:53;;;;;;;11.07;3.80;;;;;;;13.40;41.42;100656.91;5093787;28;20198;-58
2022/03/23 07:46:20;;;;;;;10.10;3.50;;;;;;;13.63;40.95;100661.50;5094238;28;20224;-65
2022/03/23 07:48:48;;;;;;;7.60;3.27;;;;;;;13.95;39.39;100651.03;5093492;28;20214;-57
2022/03/23 07:51:15;;;;;;;9.47;3.87;;;;;;;13.36;39.46;100656.28;5094090;28;20739;-65
2022/03/23 07:53:42;;;;;;;8.07;3.63;;;;;;;13.49;38.87;100653.78;5094391;28;20213;-57
2022/03/23 07:56:09;;;;;;;31.67;17.70;;;;;;;13.63;40.70;100653.00;5094678;28;20230;-64
2022/03/23 07:58:35;;;;;;;63.03;43.13;;;;;;;14.03;39.70;100656.53;5095158;28;20206;-66
2022/03/23 08:01:02;;;;;;;9.93;4.37;;;;;;;14.06;38.18;100658.91;5095351;28;20226;-58
2022/03/23 08:03:29;;;;;;;10.67;4.03;;;;;;;13.87;37.71;100658.38;5097579;28;20208;-58
2022/03/23 08:05:58;;;;;;;18.30;13.27;;;;;;;14.08;40.02;100651.94;5096594;28;20229;-64
2022/03/23 08:08:26;;;;;;;10.40;6.47;;;;;;;14.37;40.01;100646.69;5095585;28;20267;-57
2022/03/23 08:10:52;;;;;;;10.90;6.17;;;;;;;14.35;39.33;100651.13;5097705;28;20222;-57
2022/03/23 08:13:20;;;;;;;13.73;9.90;;;;;;;14.29;39.83;100654.09;5094188;28;20209;-57
2022/03/23 08:15:47;;;;;;;13.90;5.27;;;;;;;14.57;38.76;100648.88;5094949;28;20242;-57
2022/03/23 08:18:17;;;;;;;13.10;10.20;;;;;;;14.27;38.01;100652.44;5094303;28;20211;-57
2022/03/23 08:20:44;;;;;;;11.33;6.60;;;;;;;14.20;39.64;100643.47;5095478;28;20779;-66
2022/03/23 08:23:16;;;;;;;9.63;6.27;;;;;;;14.45;38.49;100644.47;5094715;28;20210;-65
2022/03/23 08:25:43;;;;;;;12.37;9.00;;;;;;;14.75;36.87;100646.03;5094025;28;20289;-57
2022/03/23 08:28:12;;;;;;;10.20;4.30;;;;;;;14.80;36.17;100644.00;5093175;28;20206;-57
2022/03/23 08:30:40;;;;;;;9.47;4.60;;;;;;;15.24;37.65;100638.50;5094977;28;20228;-66
2022/03/23 08:33:08;;;;;;;9.73;4.90;;;;;;;15.67;36.05;100634.75;5094463;28;20200;-66
2022/03/23 08:35:35;;;;;;;12.20;4.33;;;;;;;15.35;35.03;100630.84;5094245;28;20243;-57
2022/03/23 08:38:03;;;;;;;7.20;4.40;;;;;;;15.95;36.55;100634.53;5093591;28;20202;-66
2022/03/23 08:40:31;;;;;;;12.13;4.70;;;;;;;15.73;34.17;100629.22;5092756;28;20223;-66
2022/03/23 08:42:58;;;;;;;7.37;4.60;;;;;;;15.88;35.31;100638.44;5094823;28;20221;-66
2022/03/23 08:45:26;;;;;;;7.80;4.30;;;;;;;15.38;36.37;100637.56;5095369;28;20234;-67
2022/03/23 08:47:54;;;;;;;9.43;4.23;;;;;;;15.24;33.26;100632.50;5093191;28;20201;-58
2022/03/23 08:50:21;;;;;;;8.00;4.23;;;;;;;15.24;33.92;100629.94;5094551;28;20695;-58
2022/03/23 08:52:49;;;;;;;7.07;4.13;;;;;;;15.25;35.55;100629.03;5093128;28;20204;-59
2022/03/23 08:55:19;;;;;;;8.97;3.43;;;;;;;15.78;34.23;100632.31;5093235;28;20254;-58
2022/03/23 08:57:48;;;;;;;8.43;4.40;;;;;;;15.91;34.82;100627.94;5094236;28;20204;-59
2022/03/23 09:00:16;;;;;;;29.53;22.50;;;;;;;16.13;32.21;100626.44;5094216;28;20222;-68
2022/03/23 09:02:43;;;;;;;6.13;3.53;;;;;;;16.10;34.03;100621.50;5093425;28;20219;-67
2022/03/23 09:05:13;;;;;;;8.63;4.27;;;;;;;15.76;32.88;100618.69;5093316;28;20248;-67
2022/03/23 09:07:41;;;;;;;7.23;3.80;;;;;;;15.71;33.83;100620.78;5093047;28;20266;-60
2022/03/23 09:10:09;;;;;;;8.50;3.80;;;;;;;15.10;32.46;100611.09;5093970;28;20229;-59
2022/03/23 09:12:37;;;;;;;6.30;3.57;;;;;;;15.00;35.07;100604.06;5092958;28;20645;-67
2022/03/23 09:15:07;;;;;;;7.97;3.57;;;;;;;14.87;35.11;100609.22;5096127;28;20321;-67
2022/03/23 09:17:35;;;;;;;7.57;3.70;;;;;;;14.95;35.04;100617.22;5094296;28;20212;-66
2022/03/23 09:20:01;;;;;;;8.50;4.17;;;;;;;15.55;35.15;100611.47;5093858;28;20254;-59
2022/03/23 09:22:29;;;;;;;8.83;5.33;;;;;;;15.96;35.76;100609.56;5093223;28;20211;-66
2022/03/23 09:24:56;;;;;;;11.20;4.50;;;;;;;16.31;34.32;100609.63;5093507;28;20237;-67
2022/03/23 09:27:23;;;;;;;10.10;4.37;;;;;;;16.94;33.75;100608.47;5093637;28;20205;-59
2022/03/23 09:29:50;;;;;;;12.87;4.43;;;;;;;16.73;32.64;100595.34;5093235;28;20206;-67
2022/03/23 09:32:19;;;;;;;10.30;3.57;;;;;;;16.52;32.16;100597.75;5093339;28;20216;-59
2022/03/23 09:34:49;;;;;;;6.63;3.40;;;;;;;15.76;31.65;100598.06;5093457;28;20238;-59
2022/03/23 09:40:00;;;;;;;10.87;4.20;;;;;;;16.16;31.61;100596.06;5094591;28;20285;-66
2022/03/23 09:42:28;;;;;;;18.17;9.13;;;;;;;16.56;32.16;100593.19;5097396;28;20255;-57
2022/03/23 09:44:56;;;;;;;8.90;3.70;;;;;;;15.73;31.10;100582.78;5099764;28;20204;-66
2022/03/23 09:47:25;;;;;;;10.67;4.27;;;;;;;16.07;32.76;100592.38;5096304;28;20237;-62
2022/03/23 09:49:53;;;;;;;9.93;5.17;;;;;;;16.51;33.67;100580.59;5095981;28;20682;-65
2022/03/23 09:52:20;;;;;;;11.50;4.83;;;;;;;16.06;33.98;100572.69;5095888;28;20214;-57
2022/03/23 09:54:47;;;;;;;13.07;6.80;;;;;;;16.25;34.74;100574.75;5095725;28;20739;-59
2022/03/23 09:57:14;;;;;;;9.20;5.07;;;;;;;16.59;32.88;100571.50;5095677;28;20202;-66
2022/03/23 09:59:42;;;;;;;8.33;5.30;;;;;;;15.58;35.17;100579.50;5096114;28;20206;-58
2022/03/23 10:03:05;;;;;;;11.77;6.27;;;;;;;16.02;34.54;100571.25;5095838;28;20198;-58
2022/03/23 10:05:56;;;;;;;18.00;8.33;;;;;;;15.95;34.54;100571.81;5096128;28;20583;-62
2022/03/23 10:09:08;;;;;;;14.33;5.80;;;;;;;16.84;33.11;100566.19;5096773;28;20206;-58
2022/03/23 10:12:23;;;;;;;10.80;4.80;;;;;;;16.15;34.88;100570.38;5096809;28;20225;-66
2022/03/23 10:15:35;;;;;;;7.03;5.13;;;;;;;16.17;33.52;100565.91;5014226;28;20243;-66
2022/03/23 10:18:51;;;;;;;11.00;6.00;;;;;;;17.37;34.90;100558.69;5063155;28;20202;-65
2022/03/23 10:21:20;;;;;;;10.13;5.17;;;;;;;16.68;33.85;100544.97;5097518;28;20797;-65
2022/03/23 10:24:20;;;;;;;14.93;7.40;;;;;;;17.08;34.97;100550.59;5099568;28;20214;-58
2022/03/23 10:26:51;;;;;;;15.30;7.20;;;;;;;15.97;35.33;100554.44;5097649;28;20617;-65
2022/03/23 10:29:22;;;;;;;13.03;5.70;;;;;;;16.37;35.80;100552.38;5095941;28;20202;-58
2022/03/23 10:32:00;;;;;;;8.20;5.03;;;;;;;16.88;35.77;100552.09;5096109;28;20330;-59
2022/03/23 10:34:38;;;;;;;12.13;5.90;;;;;;;17.09;34.11;100538.47;5095855;28;20210;-58
2022/03/23 10:37:06;;;;;;;12.77;5.23;;;;;;;16.80;33.43;100543.28;5095275;28;20687;-66
2022/03/23 10:39:33;;;;;;;10.33;6.00;;;;;;;16.70;34.69;100535.38;5096928;28;20210;-66
2022/03/23 10:42:07;;;;;;;13.13;5.97;;;;;;;16.61;34.12;100536.03;5095924;28;20229;-66
2022/03/23 10:44:35;;;;;;;11.83;5.07;;;;;;;15.50;34.06;100525.88;5095912;28;20205;-57
2022/03/23 10:47:02;;;;;;;9.00;5.07;;;;;;;15.72;35.82;100520.09;5095577;28;20208;-66
2022/03/23 10:49:37;;;;;;;15.77;7.57;;;;;;;16.04;35.29;100514.38;5095377;28;20202;-58
2022/03/23 10:52:15;;;;;;;12.27;6.70;;;;;;;16.90;36.00;100503.72;5095191;28;20787;-66
2022/03/23 10:54:54;;;;;;;16.27;7.10;;;;;;;16.79;33.52;100510.66;5097736;28;20198;-66
2022/03/23 10:57:21;;;;;;;9.47;4.80;;;;;;;16.87;33.33;100508.28;5095711;28;20259;-57
2022/03/23 10:59:48;;;;;;;8.17;4.60;;;;;;;16.70;32.00;100497.44;5095434;28;20210;-57
2022/03/23 11:02:18;;;;;;;10.13;5.00;;;;;;;16.90;33.59;100495.97;5095571;28;20217;-66
2022/03/23 11:04:50;;;;;;;9.07;4.20;;;;;;;16.74;33.09;100492.88;5096576;28;20206;-66
2022/03/23 11:07:26;;;;;;;8.20;4.33;;;;;;;16.30;33.35;100495.25;5097607;28;20213;-66
2022/03/23 11:18:11;;;;;;;11.50;4.27;;;;;;;16.09;34.26;100473.59;5095500;28;20690;-57
2022/03/23 11:20:43;;;;;;;7.33;4.00;;;;;;;16.10;32.43;100469.25;5094334;28;20222;-57
2022/03/23 11:23:22;;;;;;;8.17;4.33;;;;;;;16.59;33.20;100470.78;5095290;28;20255;-57
2022/03/23 11:25:50;;;;;;;6.60;3.50;;;;;;;16.40;33.27;100469.56;5096114;28;20654;-66
2022/03/23 11:28:19;;;;;;;6.63;3.30;;;;;;;16.78;32.79;100468.47;5095408;28;20202;-66
2022/03/23 11:30:48;;;;;;;7.73;3.40;;;;;;;16.48;32.17;100451.75;5099065;28;20241;-57
2022/03/23 11:33:18;;;;;;;7.37;3.37;;;;;;;16.09;33.22;100449.56;5094832;28;20208;-58
2022/03/23 11:35:49;;;;;;;8.50;3.87;;;;;;;16.23;32.86;100451.91;5095139;28;20245;-66
2022/03/23 11:38:19;;;;;;;7.40;3.90;;;;;;;16.30;32.91;100442.81;5095441;28;20749;-66
2022/03/23 11:40:48;;;;;;;7.83;3.77;;;;;;;16.22;32.56;100450.28;5095100;28;20225;-66
2022/03/23 11:43:17;;;;;;;6.13;3.70;;;;;;;16.28;31.51;100439.50;5095294;28;20202;-65
2022/03/23 11:45:46;;;;;;;6.83;3.50;;;;;;;16.31;31.12;100439.28;5095768;28;20232;-57
2022/03/23 11:48:23;;;;;;;7.83;4.23;;;;;;;16.31;32.82;100434.13;5095307;28;20209;-58
2022/03/23 11:51:17;;;;;;;10.00;5.87;;;;;;;16.41;33.33;100437.66;5094395;28;20228;-66